Hudson, Michigan
Current Conditions -  °F | °C
As of 9:14 PM on Friday 19 Dec 2014 (Local Time) from KJYM Reporting Station
Clear Clear  
Wind Chill: 21°   Ceiling: Unl
Heat Index: 27°   Visibility: 10mi
Dew Point: 22°   Wind: 5mph
Humidity: 83%   Direction: 100°E
Pressure: 30.24"   Gusts: NA
Location:  41.86°N, 84.35°W
Report Text: KJYM 200214Z AUTO 10004KT 10SM CLR M03/M05 A3024 RMK AO2 T10301055
Loading
Personal Weather Stations






























Interactive Weather Map New forecast layout! Learn more

10-Day Weather Forecast

Advertisements
Track Severe Weather on mobile